sensor_id;sensor_type;location;lat;lon;timestamp;temperature;humidity
3406;DHT22;10008;48.682;9.016;2023-07-31T00:01:07;15.20;99.90
3406;DHT22;10008;48.682;9.016;2023-07-31T00:03:33;15.20;99.90
3406;DHT22;10008;48.682;9.016;2023-07-31T00:05:59;15.20;99.90
3406;DHT22;10008;48.682;9.016;2023-07-31T00:08:24;15.10;99.90
3406;DHT22;10008;48.682;9.016;2023-07-31T00:10:53;15.00;99.90
3406;DHT22;10008;48.682;9.016;2023-07-31T00:13:19;15.00;99.90
3406;DHT22;10008;48.682;9.016;2023-07-31T00:15:45;15.00;99.90
3406;DHT22;10008;48.682;9.016;2023-07-31T00:18:10;15.00;99.90
3406;DHT22;10008;48.682;9.016;2023-07-31T00:20:36;14.90;99.90
3406;DHT22;10008;48.682;9.016;2023-07-31T00:23:02;14.90;99.90
3406;DHT22;10008;48.682;9.016;2023-07-31T00:25:27;14.90;99.90
3406;DHT22;10008;48.682;9.016;2023-07-31T00:27:53;14.80;99.90
3406;DHT22;10008;48.682;9.016;2023-07-31T00:30:19;14.90;99.90
3406;DHT22;10008;48.682;9.016;2023-07-31T00:32:44;14.90;99.90
3406;DHT22;10008;48.682;9.016;2023-07-31T00:35:10;14.80;99.90
3406;DHT22;10008;48.682;9.016;2023-07-31T00:37:36;14.80;99.90
3406;DHT22;10008;48.682;9.016;2023-07-31T00:40:02;14.80;99.90
3406;DHT22;10008;48.682;9.016;2023-07-31T00:42:29;14.80;99.90
3406;DHT22;10008;48.682;9.016;2023-07-31T00:44:55;14.70;99.90
3406;DHT22;10008;48.682;9.016;2023-07-31T00:47:20;14.70;99.90
3406;DHT22;10008;48.682;9.016;2023-07-31T00:49:46;14.70;99.90
3406;DHT22;10008;48.682;9.016;2023-07-31T00:52:13;14.80;99.90
3406;DHT22;10008;48.682;9.016;2023-07-31T00:54:39;14.80;99.90
3406;DHT22;10008;48.682;9.016;2023-07-31T00:57:05;14.70;99.90
3406;DHT22;10008;48.682;9.016;2023-07-31T00:59:33;14.70;99.90
3406;DHT22;10008;48.682;9.016;2023-07-31T01:01:58;14.70;99.90
3406;DHT22;10008;48.682;9.016;2023-07-31T01:04:24;14.70;99.90
3406;DHT22;10008;48.682;9.016;2023-07-31T01:12:28;14.70;99.90
3406;DHT22;10008;48.682;9.016;2023-07-31T01:15:03;14.70;99.90
3406;DHT22;10008;48.682;9.016;2023-07-31T01:17:30;14.60;99.90
3406;DHT22;10008;48.682;9.016;2023-07-31T01:20:00;14.60;99.90
3406;DHT22;10008;48.682;9.016;2023-07-31T01:28:20;14.60;99.90
3406;DHT22;10008;48.682;9.016;2023-07-31T01:30:48;14.60;99.90
3406;DHT22;10008;48.682;9.016;2023-07-31T01:33:17;14.60;99.90
3406;DHT22;10008;48.682;9.016;2023-07-31T01:35:47;14.60;99.90
3406;DHT22;10008;48.682;9.016;2023-07-31T01:38:14;14.60;99.90
3406;DHT22;10008;48.682;9.016;2023-07-31T01:40:43;14.60;99.90
3406;DHT22;10008;48.682;9.016;2023-07-31T01:43:09;14.60;99.90
3406;DHT22;10008;48.682;9.016;2023-07-31T01:45:35;14.60;99.90
3406;DHT22;10008;48.682;9.016;2023-07-31T01:48:00;14.60;99.90
3406;DHT22;10008;48.682;9.016;2023-07-31T01:50:26;14.60;99.90
3406;DHT22;10008;48.682;9.016;2023-07-31T01:52:52;14.60;99.90
3406;DHT22;10008;48.682;9.016;2023-07-31T01:55:17;14.60;99.90
3406;DHT22;10008;48.682;9.016;2023-07-31T01:57:43;14.60;99.90
3406;DHT22;10008;48.682;9.016;2023-07-31T02:00:09;14.50;99.90
3406;DHT22;10008;48.682;9.016;2023-07-31T02:02:38;14.60;99.90
3406;DHT22;10008;48.682;9.016;2023-07-31T02:05:04;14.60;99.90
3406;DHT22;10008;48.682;9.016;2023-07-31T02:07:30;14.50;99.90
3406;DHT22;10008;48.682;9.016;2023-07-31T02:09:56;14.50;99.90
3406;DHT22;10008;48.682;9.016;2023-07-31T02:12:22;14.50;99.90
3406;DHT22;10008;48.682;9.016;2023-07-31T02:14:48;14.50;99.90
3406;DHT22;10008;48.682;9.016;2023-07-31T02:17:13;14.50;99.90
3406;DHT22;10008;48.682;9.016;2023-07-31T02:19:39;14.50;99.90
3406;DHT22;10008;48.682;9.016;2023-07-31T02:22:05;14.60;99.90
3406;DHT22;10008;48.682;9.016;2023-07-31T02:24:30;14.60;99.90
3406;DHT22;10008;48.682;9.016;2023-07-31T02:26:57;14.60;99.90
3406;DHT22;10008;48.682;9.016;2023-07-31T02:29:23;14.70;99.90
3406;DHT22;10008;48.682;9.016;2023-07-31T02:31:49;14.70;99.90
3406;DHT22;10008;48.682;9.016;2023-07-31T02:34:15;14.70;99.90
3406;DHT22;10008;48.682;9.016;2023-07-31T02:36:41;14.80;99.90
3406;DHT22;10008;48.682;9.016;2023-07-31T02:39:07;14.80;99.90
3406;DHT22;10008;48.682;9.016;2023-07-31T02:41:33;14.80;99.90
3406;DHT22;10008;48.682;9.016;2023-07-31T02:43:58;14.80;99.90
3406;DHT22;10008;48.682;9.016;2023-07-31T02:46:24;14.80;99.90
3406;DHT22;10008;48.682;9.016;2023-07-31T02:48:50;14.80;99.90
3406;DHT22;10008;48.682;9.016;2023-07-31T02:51:16;14.80;99.90
3406;DHT22;10008;48.682;9.016;2023-07-31T02:53:42;14.70;99.90
3406;DHT22;10008;48.682;9.016;2023-07-31T02:56:08;14.70;99.90
3406;DHT22;10008;48.682;9.016;2023-07-31T02:58:34;14.70;99.90
3406;DHT22;10008;48.682;9.016;2023-07-31T03:00:59;14.70;99.90
3406;DHT22;10008;48.682;9.016;2023-07-31T03:03:26;14.70;99.90
3406;DHT22;10008;48.682;9.016;2023-07-31T03:05:51;14.70;99.90
3406;DHT22;10008;48.682;9.016;2023-07-31T03:08:18;14.70;99.90
3406;DHT22;10008;48.682;9.016;2023-07-31T03:10:44;14.70;99.90
3406;DHT22;10008;48.682;9.016;2023-07-31T03:13:09;14.70;99.90
3406;DHT22;10008;48.682;9.016;2023-07-31T03:15:35;14.70;99.90
3406;DHT22;10008;48.682;9.016;2023-07-31T03:18:01;14.70;99.90
3406;DHT22;10008;48.682;9.016;2023-07-31T03:20:27;14.70;99.90
3406;DHT22;10008;48.682;9.016;2023-07-31T03:22:52;14.70;99.90
3406;DHT22;10008;48.682;9.016;2023-07-31T03:25:18;14.80;99.90
3406;DHT22;10008;48.682;9.016;2023-07-31T03:27:44;14.80;99.90
3406;DHT22;10008;48.682;9.016;2023-07-31T03:30:10;14.80;99.90
3406;DHT22;10008;48.682;9.016;2023-07-31T03:32:35;14.80;99.90
3406;DHT22;10008;48.682;9.016;2023-07-31T03:35:01;14.80;99.90
3406;DHT22;10008;48.682;9.016;2023-07-31T03:37:27;14.80;99.90
3406;DHT22;10008;48.682;9.016;2023-07-31T03:39:53;14.90;99.90
3406;DHT22;10008;48.682;9.016;2023-07-31T03:42:18;14.80;99.90
3406;DHT22;10008;48.682;9.016;2023-07-31T03:44:44;14.90;99.90
3406;DHT22;10008;48.682;9.016;2023-07-31T03:47:10;14.90;99.90
3406;DHT22;10008;48.682;9.016;2023-07-31T03:49:37;14.90;99.90
3406;DHT22;10008;48.682;9.016;2023-07-31T03:52:03;14.90;99.90
3406;DHT22;10008;48.682;9.016;2023-07-31T03:54:28;14.90;99.90
3406;DHT22;10008;48.682;9.016;2023-07-31T03:56:54;15.00;99.90
3406;DHT22;10008;48.682;9.016;2023-07-31T03:59:20;15.10;99.90
3406;DHT22;10008;48.682;9.016;2023-07-31T04:01:45;15.10;99.90
3406;DHT22;10008;48.682;9.016;2023-07-31T04:04:11;15.20;99.90
3406;DHT22;10008;48.682;9.016;2023-07-31T04:06:37;15.20;99.90
3406;DHT22;10008;48.682;9.016;2023-07-31T04:09:03;15.20;99.90
3406;DHT22;10008;48.682;9.016;2023-07-31T04:11:28;15.30;99.90
3406;DHT22;10008;48.682;9.016;2023-07-31T04:13:54;15.30;99.90
3406;DHT22;10008;48.682;9.016;2023-07-31T04:16:20;15.30;99.90
3406;DHT22;10008;48.682;9.016;2023-07-31T04:18:46;15.30;99.90
3406;DHT22;10008;48.682;9.016;2023-07-31T04:21:11;15.30;99.90
3406;DHT22;10008;48.682;9.016;2023-07-31T04:23:37;15.30;99.90
3406;DHT22;10008;48.682;9.016;2023-07-31T04:26:03;15.30;99.90
3406;DHT22;10008;48.682;9.016;2023-07-31T04:28:29;15.40;99.90
3406;DHT22;10008;48.682;9.016;2023-07-31T04:30:57;15.40;99.90
3406;DHT22;10008;48.682;9.016;2023-07-31T04:33:23;15.30;99.90
3406;DHT22;10008;48.682;9.016;2023-07-31T04:35:52;15.40;99.90
3406;DHT22;10008;48.682;9.016;2023-07-31T04:38:19;15.40;99.90
3406;DHT22;10008;48.682;9.016;2023-07-31T04:40:46;15.40;99.90
3406;DHT22;10008;48.682;9.016;2023-07-31T04:43:11;15.50;99.90
3406;DHT22;10008;48.682;9.016;2023-07-31T04:45:37;15.50;99.90
3406;DHT22;10008;48.682;9.016;2023-07-31T04:48:03;15.50;99.90
3406;DHT22;10008;48.682;9.016;2023-07-31T04:50:29;15.50;99.90
3406;DHT22;10008;48.682;9.016;2023-07-31T04:52:56;15.50;99.90
3406;DHT22;10008;48.682;9.016;2023-07-31T04:55:22;15.50;99.90
3406;DHT22;10008;48.682;9.016;2023-07-31T04:57:47;15.50;99.90
3406;DHT22;10008;48.682;9.016;2023-07-31T05:00:13;15.50;99.90
3406;DHT22;10008;48.682;9.016;2023-07-31T05:02:39;15.50;99.90
3406;DHT22;10008;48.682;9.016;2023-07-31T05:05:06;15.60;99.90
3406;DHT22;10008;48.682;9.016;2023-07-31T05:07:32;15.60;99.90
3406;DHT22;10008;48.682;9.016;2023-07-31T05:09:57;15.60;99.90
3406;DHT22;10008;48.682;9.016;2023-07-31T05:12:23;15.70;99.90
3406;DHT22;10008;48.682;9.016;2023-07-31T05:14:49;15.80;99.90
3406;DHT22;10008;48.682;9.016;2023-07-31T05:17:15;15.80;99.90
3406;DHT22;10008;48.682;9.016;2023-07-31T05:19:40;15.80;99.90
3406;DHT22;10008;48.682;9.016;2023-07-31T05:22:06;15.80;99.90
3406;DHT22;10008;48.682;9.016;2023-07-31T05:24:32;15.80;99.90
3406;DHT22;10008;48.682;9.016;2023-07-31T05:26:59;15.90;99.90
3406;DHT22;10008;48.682;9.016;2023-07-31T05:29:24;16.00;99.90
3406;DHT22;10008;48.682;9.016;2023-07-31T05:31:50;16.00;99.90
3406;DHT22;10008;48.682;9.016;2023-07-31T05:34:16;16.10;99.90
3406;DHT22;10008;48.682;9.016;2023-07-31T05:36:41;16.30;99.90
3406;DHT22;10008;48.682;9.016;2023-07-31T05:39:07;16.40;99.90
3406;DHT22;10008;48.682;9.016;2023-07-31T05:41:35;16.60;99.90
3406;DHT22;10008;48.682;9.016;2023-07-31T05:44:00;16.60;99.90
3406;DHT22;10008;48.682;9.016;2023-07-31T05:46:26;16.70;99.90
3406;DHT22;10008;48.682;9.016;2023-07-31T05:48:52;16.80;99.90
3406;DHT22;10008;48.682;9.016;2023-07-31T05:51:18;17.00;99.90
3406;DHT22;10008;48.682;9.016;2023-07-31T05:53:43;16.90;99.90
3406;DHT22;10008;48.682;9.016;2023-07-31T05:56:09;17.00;99.90
3406;DHT22;10008;48.682;9.016;2023-07-31T05:58:35;17.00;99.90
3406;DHT22;10008;48.682;9.016;2023-07-31T06:01:00;17.00;99.90
3406;DHT22;10008;48.682;9.016;2023-07-31T06:03:26;17.10;99.90
3406;DHT22;10008;48.682;9.016;2023-07-31T06:05:52;17.20;99.90
3406;DHT22;10008;48.682;9.016;2023-07-31T06:08:17;17.10;99.90
3406;DHT22;10008;48.682;9.016;2023-07-31T06:10:43;16.90;99.90
3406;DHT22;10008;48.682;9.016;2023-07-31T06:13:09;16.90;99.90
3406;DHT22;10008;48.682;9.016;2023-07-31T06:15:34;17.00;99.90
3406;DHT22;10008;48.682;9.016;2023-07-31T06:18:00;17.00;99.90
3406;DHT22;10008;48.682;9.016;2023-07-31T06:20:27;17.20;99.90
3406;DHT22;10008;48.682;9.016;2023-07-31T06:22:54;17.40;99.90
3406;DHT22;10008;48.682;9.016;2023-07-31T06:25:19;17.30;99.90
3406;DHT22;10008;48.682;9.016;2023-07-31T06:27:45;17.30;99.90
3406;DHT22;10008;48.682;9.016;2023-07-31T06:30:11;17.30;99.90
3406;DHT22;10008;48.682;9.016;2023-07-31T06:32:37;17.40;99.90
3406;DHT22;10008;48.682;9.016;2023-07-31T06:35:03;17.50;99.90
3406;DHT22;10008;48.682;9.016;2023-07-31T06:37:29;17.80;99.90
3406;DHT22;10008;48.682;9.016;2023-07-31T06:39:55;18.30;99.90
3406;DHT22;10008;48.682;9.016;2023-07-31T06:42:21;18.70;99.90
3406;DHT22;10008;48.682;9.016;2023-07-31T06:44:47;19.10;99.90
3406;DHT22;10008;48.682;9.016;2023-07-31T06:47:12;19.20;99.90
3406;DHT22;10008;48.682;9.016;2023-07-31T06:49:38;19.20;99.90
3406;DHT22;10008;48.682;9.016;2023-07-31T06:52:04;19.30;99.90
3406;DHT22;10008;48.682;9.016;2023-07-31T06:54:30;19.80;99.90
3406;DHT22;10008;48.682;9.016;2023-07-31T06:56:55;19.50;99.90
3406;DHT22;10008;48.682;9.016;2023-07-31T06:59:21;19.10;99.90
3406;DHT22;10008;48.682;9.016;2023-07-31T07:01:47;18.80;99.90
3406;DHT22;10008;48.682;9.016;2023-07-31T07:04:13;18.60;99.90
3406;DHT22;10008;48.682;9.016;2023-07-31T07:06:39;18.60;99.90
3406;DHT22;10008;48.682;9.016;2023-07-31T07:09:05;18.60;99.90
3406;DHT22;10008;48.682;9.016;2023-07-31T07:11:32;18.60;99.90
3406;DHT22;10008;48.682;9.016;2023-07-31T07:13:58;18.80;99.90
3406;DHT22;10008;48.682;9.016;2023-07-31T07:16:23;18.90;99.90
3406;DHT22;10008;48.682;9.016;2023-07-31T07:18:49;18.90;99.90
3406;DHT22;10008;48.682;9.016;2023-07-31T07:21:15;18.90;99.90
3406;DHT22;10008;48.682;9.016;2023-07-31T07:23:42;19.00;99.90
3406;DHT22;10008;48.682;9.016;2023-07-31T07:26:08;19.10;99.90
3406;DHT22;10008;48.682;9.016;2023-07-31T07:28:33;19.70;99.90
3406;DHT22;10008;48.682;9.016;2023-07-31T07:30:59;19.90;99.90
3406;DHT22;10008;48.682;9.016;2023-07-31T07:33:25;19.50;99.90
3406;DHT22;10008;48.682;9.016;2023-07-31T07:35:51;19.40;99.90
3406;DHT22;10008;48.682;9.016;2023-07-31T07:38:17;19.10;99.90
3406;DHT22;10008;48.682;9.016;2023-07-31T07:40:44;19.00;99.90
3406;DHT22;10008;48.682;9.016;2023-07-31T07:43:12;19.00;99.90
3406;DHT22;10008;48.682;9.016;2023-07-31T07:45:37;19.10;99.90
3406;DHT22;10008;48.682;9.016;2023-07-31T07:48:03;19.40;99.90
3406;DHT22;10008;48.682;9.016;2023-07-31T07:50:29;19.40;99.90
3406;DHT22;10008;48.682;9.016;2023-07-31T07:52:55;19.80;99.90
3406;DHT22;10008;48.682;9.016;2023-07-31T07:55:21;20.30;99.90
3406;DHT22;10008;48.682;9.016;2023-07-31T07:57:46;20.10;99.90
3406;DHT22;10008;48.682;9.016;2023-07-31T08:00:13;20.70;99.90
3406;DHT22;10008;48.682;9.016;2023-07-31T08:02:42;21.70;99.90
3406;DHT22;10008;48.682;9.016;2023-07-31T08:05:08;22.50;99.30
3406;DHT22;10008;48.682;9.016;2023-07-31T08:07:33;21.60;99.40
3406;DHT22;10008;48.682;9.016;2023-07-31T08:09:59;21.60;99.90
3406;DHT22;10008;48.682;9.016;2023-07-31T08:12:25;21.90;99.40
3406;DHT22;10008;48.682;9.016;2023-07-31T08:14:51;22.30;98.70
3406;DHT22;10008;48.682;9.016;2023-07-31T08:17:17;22.70;97.60
3406;DHT22;10008;48.682;9.016;2023-07-31T08:19:43;22.80;97.40
3406;DHT22;10008;48.682;9.016;2023-07-31T08:22:09;22.60;97.20
3406;DHT22;10008;48.682;9.016;2023-07-31T08:24:35;23.30;96.90
3406;DHT22;10008;48.682;9.016;2023-07-31T08:27:01;23.40;96.30
3406;DHT22;10008;48.682;9.016;2023-07-31T08:29:26;24.00;96.30
3406;DHT22;10008;48.682;9.016;2023-07-31T08:31:52;24.90;95.40
3406;DHT22;10008;48.682;9.016;2023-07-31T08:34:18;24.50;93.30
3406;DHT22;10008;48.682;9.016;2023-07-31T08:36:43;23.70;94.40
3406;DHT22;10008;48.682;9.016;2023-07-31T08:39:10;23.20;95.40
3406;DHT22;10008;48.682;9.016;2023-07-31T08:41:39;22.90;95.00
3406;DHT22;10008;48.682;9.016;2023-07-31T08:44:06;23.30;96.20
3406;DHT22;10008;48.682;9.016;2023-07-31T08:46:32;23.30;96.20
3406;DHT22;10008;48.682;9.016;2023-07-31T08:48:59;22.70;96.10
3406;DHT22;10008;48.682;9.016;2023-07-31T08:51:26;21.70;96.90
3406;DHT22;10008;48.682;9.016;2023-07-31T08:53:53;20.90;98.30
3406;DHT22;10008;48.682;9.016;2023-07-31T08:56:19;20.50;99.90
3406;DHT22;10008;48.682;9.016;2023-07-31T08:58:46;20.00;99.90
3406;DHT22;10008;48.682;9.016;2023-07-31T09:01:13;19.80;99.90
3406;DHT22;10008;48.682;9.016;2023-07-31T09:03:39;19.80;99.90
3406;DHT22;10008;48.682;9.016;2023-07-31T09:06:06;20.00;99.90
3406;DHT22;10008;48.682;9.016;2023-07-31T09:08:33;20.00;99.90
3406;DHT22;10008;48.682;9.016;2023-07-31T09:11:00;20.10;99.90
3406;DHT22;10008;48.682;9.016;2023-07-31T09:13:29;20.40;99.90
3406;DHT22;10008;48.682;9.016;2023-07-31T09:15:55;20.50;99.90
3406;DHT22;10008;48.682;9.016;2023-07-31T09:18:21;21.50;99.90
3406;DHT22;10008;48.682;9.016;2023-07-31T09:21:06;22.40;98.70
3406;DHT22;10008;48.682;9.016;2023-07-31T09:23:46;22.40;98.20
3406;DHT22;10008;48.682;9.016;2023-07-31T09:26:33;22.00;97.40
3406;DHT22;10008;48.682;9.016;2023-07-31T09:29:00;21.80;98.70
3406;DHT22;10008;48.682;9.016;2023-07-31T09:31:52;21.30;98.90
3406;DHT22;10008;48.682;9.016;2023-07-31T09:34:18;20.80;99.50
3406;DHT22;10008;48.682;9.016;2023-07-31T09:36:49;20.70;99.90
3406;DHT22;10008;48.682;9.016;2023-07-31T09:39:16;20.50;99.90
3406;DHT22;10008;48.682;9.016;2023-07-31T09:41:44;20.50;99.90
3406;DHT22;10008;48.682;9.016;2023-07-31T09:44:11;20.80;99.90
3406;DHT22;10008;48.682;9.016;2023-07-31T09:46:37;20.70;99.30
3406;DHT22;10008;48.682;9.016;2023-07-31T09:51:30;21.30;99.50
3406;DHT22;10008;48.682;9.016;2023-07-31T09:53:56;21.40;98.70
3406;DHT22;10008;48.682;9.016;2023-07-31T09:56:23;21.50;99.00
3406;DHT22;10008;48.682;9.016;2023-07-31T09:58:49;21.40;99.20
3406;DHT22;10008;48.682;9.016;2023-07-31T10:01:16;21.90;98.80
3406;DHT22;10008;48.682;9.016;2023-07-31T10:03:42;22.00;98.10
3406;DHT22;10008;48.682;9.016;2023-07-31T10:06:10;22.20;98.20
3406;DHT22;10008;48.682;9.016;2023-07-31T10:08:36;22.40;98.50
3406;DHT22;10008;48.682;9.016;2023-07-31T10:11:03;22.60;98.20
3406;DHT22;10008;48.682;9.016;2023-07-31T10:13:30;22.90;97.10
3406;DHT22;10008;48.682;9.016;2023-07-31T10:15:59;23.10;97.20
3406;DHT22;10008;48.682;9.016;2023-07-31T10:18:26;23.50;96.50
3406;DHT22;10008;48.682;9.016;2023-07-31T10:20:53;23.60;96.70
3406;DHT22;10008;48.682;9.016;2023-07-31T10:23:20;24.00;95.40
3406;DHT22;10008;48.682;9.016;2023-07-31T10:25:46;23.80;94.90
3406;DHT22;10008;48.682;9.016;2023-07-31T10:28:14;24.00;95.00
3406;DHT22;10008;48.682;9.016;2023-07-31T10:30:40;24.40;94.20
3406;DHT22;10008;48.682;9.016;2023-07-31T10:33:07;24.70;93.20
3406;DHT22;10008;48.682;9.016;2023-07-31T10:35:33;25.20;93.70
3406;DHT22;10008;48.682;9.016;2023-07-31T10:38:11;25.30;92.90
3406;DHT22;10008;48.682;9.016;2023-07-31T10:40:37;25.30;91.00
3406;DHT22;10008;48.682;9.016;2023-07-31T10:43:05;25.50;91.70
3406;DHT22;10008;48.682;9.016;2023-07-31T10:45:36;25.90;91.00
3406;DHT22;10008;48.682;9.016;2023-07-31T10:48:04;25.70;91.30
3406;DHT22;10008;48.682;9.016;2023-07-31T10:50:31;24.90;90.80
3406;DHT22;10008;48.682;9.016;2023-07-31T10:53:00;24.00;92.90
3406;DHT22;10008;48.682;9.016;2023-07-31T10:58:09;24.90;92.10
3406;DHT22;10008;48.682;9.016;2023-07-31T11:00:43;24.70;93.20
3406;DHT22;10008;48.682;9.016;2023-07-31T11:03:13;24.50;93.80
3406;DHT22;10008;48.682;9.016;2023-07-31T11:05:46;24.20;93.20
3406;DHT22;10008;48.682;9.016;2023-07-31T11:10:38;22.90;94.80
3406;DHT22;10008;48.682;9.016;2023-07-31T11:13:04;22.70;95.00
3406;DHT22;10008;48.682;9.016;2023-07-31T11:15:31;22.50;95.30
3406;DHT22;10008;48.682;9.016;2023-07-31T11:17:57;22.40;96.40
3406;DHT22;10008;48.682;9.016;2023-07-31T11:20:25;22.40;96.20
3406;DHT22;10008;48.682;9.016;2023-07-31T11:22:52;22.50;96.20
3406;DHT22;10008;48.682;9.016;2023-07-31T11:25:18;22.50;95.90
3406;DHT22;10008;48.682;9.016;2023-07-31T11:27:44;22.70;97.00
3406;DHT22;10008;48.682;9.016;2023-07-31T11:30:10;22.40;96.40
3406;DHT22;10008;48.682;9.016;2023-07-31T11:32:37;22.00;96.90
3406;DHT22;10008;48.682;9.016;2023-07-31T11:35:03;21.80;98.10
3406;DHT22;10008;48.682;9.016;2023-07-31T11:37:44;21.60;98.00
3406;DHT22;10008;48.682;9.016;2023-07-31T11:40:10;21.50;98.50
3406;DHT22;10008;48.682;9.016;2023-07-31T11:42:36;21.40;99.30
3406;DHT22;10008;48.682;9.016;2023-07-31T11:45:06;21.50;98.10
3406;DHT22;10008;48.682;9.016;2023-07-31T11:47:35;21.60;99.10
3406;DHT22;10008;48.682;9.016;2023-07-31T11:50:06;21.50;98.60
3406;DHT22;10008;48.682;9.016;2023-07-31T11:52:37;21.40;98.90
3406;DHT22;10008;48.682;9.016;2023-07-31T11:55:04;21.20;99.20
3406;DHT22;10008;48.682;9.016;2023-07-31T11:57:31;21.20;99.60
3406;DHT22;10008;48.682;9.016;2023-07-31T11:59:57;21.20;99.00
3406;DHT22;10008;48.682;9.016;2023-07-31T12:02:24;21.30;98.90
3406;DHT22;10008;48.682;9.016;2023-07-31T12:04:49;21.40;99.90
3406;DHT22;10008;48.682;9.016;2023-07-31T12:07:15;21.40;99.40
3406;DHT22;10008;48.682;9.016;2023-07-31T12:09:52;21.40;98.90
3406;DHT22;10008;48.682;9.016;2023-07-31T12:12:22;21.30;99.50
3406;DHT22;10008;48.682;9.016;2023-07-31T12:14:48;21.10;99.50
3406;DHT22;10008;48.682;9.016;2023-07-31T12:17:14;21.20;99.90
3406;DHT22;10008;48.682;9.016;2023-07-31T12:19:41;21.40;99.90
3406;DHT22;10008;48.682;9.016;2023-07-31T12:22:16;21.40;99.70
3406;DHT22;10008;48.682;9.016;2023-07-31T12:24:43;21.20;99.90
3406;DHT22;10008;48.682;9.016;2023-07-31T12:27:13;21.30;98.50
3406;DHT22;10008;48.682;9.016;2023-07-31T12:29:40;21.50;99.90
3406;DHT22;10008;48.682;9.016;2023-07-31T12:32:39;21.40;98.80
3406;DHT22;10008;48.682;9.016;2023-07-31T12:35:07;21.30;99.50
3406;DHT22;10008;48.682;9.016;2023-07-31T12:37:33;21.30;99.90
3406;DHT22;10008;48.682;9.016;2023-07-31T12:39:59;21.30;99.90
3406;DHT22;10008;48.682;9.016;2023-07-31T12:42:30;21.50;99.90
3406;DHT22;10008;48.682;9.016;2023-07-31T12:44:56;21.90;99.90
3406;DHT22;10008;48.682;9.016;2023-07-31T12:47:22;22.00;99.80
3406;DHT22;10008;48.682;9.016;2023-07-31T12:49:48;22.40;99.20
3406;DHT22;10008;48.682;9.016;2023-07-31T12:52:14;22.60;96.40
3406;DHT22;10008;48.682;9.016;2023-07-31T12:54:39;23.00;96.20
3406;DHT22;10008;48.682;9.016;2023-07-31T12:57:05;23.10;97.20
3406;DHT22;10008;48.682;9.016;2023-07-31T12:59:31;23.00;96.80
3406;DHT22;10008;48.682;9.016;2023-07-31T13:01:57;23.40;95.60
3406;DHT22;10008;48.682;9.016;2023-07-31T13:04:22;23.90;95.80
3406;DHT22;10008;48.682;9.016;2023-07-31T13:06:48;24.30;95.10
3406;DHT22;10008;48.682;9.016;2023-07-31T13:09:14;24.10;94.80
3406;DHT22;10008;48.682;9.016;2023-07-31T13:11:43;23.80;96.50
3406;DHT22;10008;48.682;9.016;2023-07-31T13:14:09;23.30;96.70
3406;DHT22;10008;48.682;9.016;2023-07-31T13:16:34;23.00;97.40
3406;DHT22;10008;48.682;9.016;2023-07-31T13:19:00;22.80;97.70
3406;DHT22;10008;48.682;9.016;2023-07-31T13:21:26;22.50;97.60
3406;DHT22;10008;48.682;9.016;2023-07-31T13:23:52;22.50;99.20
3406;DHT22;10008;48.682;9.016;2023-07-31T13:26:18;22.30;99.10
3406;DHT22;10008;48.682;9.016;2023-07-31T13:28:43;22.40;99.30
3406;DHT22;10008;48.682;9.016;2023-07-31T13:31:09;22.60;98.40
3406;DHT22;10008;48.682;9.016;2023-07-31T13:33:36;22.80;99.70
3406;DHT22;10008;48.682;9.016;2023-07-31T13:36:02;22.90;97.60
3406;DHT22;10008;48.682;9.016;2023-07-31T13:38:28;23.00;96.10
3406;DHT22;10008;48.682;9.016;2023-07-31T13:40:54;23.10;98.30
3406;DHT22;10008;48.682;9.016;2023-07-31T13:43:20;23.00;98.20
3406;DHT22;10008;48.682;9.016;2023-07-31T13:45:45;23.00;98.70
3406;DHT22;10008;48.682;9.016;2023-07-31T13:48:11;22.90;97.10
3406;DHT22;10008;48.682;9.016;2023-07-31T13:50:37;23.20;99.30
3406;DHT22;10008;48.682;9.016;2023-07-31T13:53:02;23.40;99.70
3406;DHT22;10008;48.682;9.016;2023-07-31T13:55:28;23.30;98.60
3406;DHT22;10008;48.682;9.016;2023-07-31T13:57:54;22.90;98.10
3406;DHT22;10008;48.682;9.016;2023-07-31T14:00:19;23.10;98.30
3406;DHT22;10008;48.682;9.016;2023-07-31T14:02:45;23.30;98.70
3406;DHT22;10008;48.682;9.016;2023-07-31T14:05:11;23.50;98.90
3406;DHT22;10008;48.682;9.016;2023-07-31T14:07:36;23.60;98.40
3406;DHT22;10008;48.682;9.016;2023-07-31T14:10:02;23.30;97.30
3406;DHT22;10008;48.682;9.016;2023-07-31T14:12:29;23.10;98.30
3406;DHT22;10008;48.682;9.016;2023-07-31T14:14:56;22.70;97.60
3406;DHT22;10008;48.682;9.016;2023-07-31T14:17:21;22.50;98.00
3406;DHT22;10008;48.682;9.016;2023-07-31T14:19:47;22.20;97.50
3406;DHT22;10008;48.682;9.016;2023-07-31T14:22:13;22.00;98.00
3406;DHT22;10008;48.682;9.016;2023-07-31T14:24:38;21.90;98.20
3406;DHT22;10008;48.682;9.016;2023-07-31T14:27:04;21.90;98.60
3406;DHT22;10008;48.682;9.016;2023-07-31T14:29:30;21.90;98.70
3406;DHT22;10008;48.682;9.016;2023-07-31T14:31:56;21.90;98.60
3406;DHT22;10008;48.682;9.016;2023-07-31T14:34:22;21.80;97.90
3406;DHT22;10008;48.682;9.016;2023-07-31T14:36:48;21.80;98.50
3406;DHT22;10008;48.682;9.016;2023-07-31T14:39:13;21.80;98.10
3406;DHT22;10008;48.682;9.016;2023-07-31T14:41:39;21.90;98.50
3406;DHT22;10008;48.682;9.016;2023-07-31T14:44:05;22.00;98.40
3406;DHT22;10008;48.682;9.016;2023-07-31T14:46:30;22.20;96.40
3406;DHT22;10008;48.682;9.016;2023-07-31T14:48:56;22.30;98.00
3406;DHT22;10008;48.682;9.016;2023-07-31T14:51:22;22.20;97.50
3406;DHT22;10008;48.682;9.016;2023-07-31T14:53:48;22.30;97.90
3406;DHT22;10008;48.682;9.016;2023-07-31T14:56:13;22.30;97.80
3406;DHT22;10008;48.682;9.016;2023-07-31T14:58:39;22.30;97.50
3406;DHT22;10008;48.682;9.016;2023-07-31T15:01:05;22.20;97.50
3406;DHT22;10008;48.682;9.016;2023-07-31T15:03:30;22.30;96.70
3406;DHT22;10008;48.682;9.016;2023-07-31T15:05:56;22.40;98.00
3406;DHT22;10008;48.682;9.016;2023-07-31T15:08:22;22.40;98.60
3406;DHT22;10008;48.682;9.016;2023-07-31T15:10:48;22.50;98.40
3406;DHT22;10008;48.682;9.016;2023-07-31T15:13:14;22.60;96.80
3406;DHT22;10008;48.682;9.016;2023-07-31T15:15:40;22.50;98.20
3406;DHT22;10008;48.682;9.016;2023-07-31T15:18:05;22.40;97.30
3406;DHT22;10008;48.682;9.016;2023-07-31T15:20:31;22.50;97.90
3406;DHT22;10008;48.682;9.016;2023-07-31T15:22:58;22.50;97.10
3406;DHT22;10008;48.682;9.016;2023-07-31T15:25:23;22.80;98.60
3406;DHT22;10008;48.682;9.016;2023-07-31T15:27:49;23.00;98.50
3406;DHT22;10008;48.682;9.016;2023-07-31T15:30:15;23.00;98.20
3406;DHT22;10008;48.682;9.016;2023-07-31T15:32:40;22.80;97.30
3406;DHT22;10008;48.682;9.016;2023-07-31T15:35:07;22.80;98.00
3406;DHT22;10008;48.682;9.016;2023-07-31T15:37:33;22.50;98.10
3406;DHT22;10008;48.682;9.016;2023-07-31T15:39:59;22.60;98.40
3406;DHT22;10008;48.682;9.016;2023-07-31T15:42:25;22.50;98.50
3406;DHT22;10008;48.682;9.016;2023-07-31T15:44:50;22.50;98.80
3406;DHT22;10008;48.682;9.016;2023-07-31T15:47:16;22.40;98.30
3406;DHT22;10008;48.682;9.016;2023-07-31T15:49:42;22.30;98.20
3406;DHT22;10008;48.682;9.016;2023-07-31T15:52:07;22.20;98.80
3406;DHT22;10008;48.682;9.016;2023-07-31T15:54:33;22.20;97.30
3406;DHT22;10008;48.682;9.016;2023-07-31T15:56:59;22.20;97.70
3406;DHT22;10008;48.682;9.016;2023-07-31T15:59:24;22.10;98.30